sensor_id;sensor_type;location;lat;lon;timestamp;pressure;altitude;pressure_sealevel;temperature;humidity
69689;BME280;56932;38.402;-96.176;2022-09-27T00:01:27;97936.11;;;22.99;34.92
69689;BME280;56932;38.402;-96.176;2022-09-27T00:03:53;97934.59;;;22.38;35.12
69689;BME280;56932;38.402;-96.176;2022-09-27T00:06:22;97932.55;;;22.53;34.88
69689;BME280;56932;38.402;-96.176;2022-09-27T00:08:44;97931.77;;;22.75;34.23
69689;BME280;56932;38.402;-96.176;2022-09-27T00:11:16;97933.24;;;22.98;34.26
69689;BME280;56932;38.402;-96.176;2022-09-27T00:13:35;97933.12;;;22.81;34.56
69689;BME280;56932;38.402;-96.176;2022-09-27T00:16:02;97931.32;;;22.58;34.56
69689;BME280;56932;38.402;-96.176;2022-09-27T00:18:26;97932.95;;;22.90;34.78
69689;BME280;56932;38.402;-96.176;2022-09-27T00:20:51;97932.61;;;22.65;34.77
69689;BME280;56932;38.402;-96.176;2022-09-27T00:23:16;97936.74;;;22.55;35.25
69689;BME280;56932;38.402;-96.176;2022-09-27T00:25:42;97938.54;;;22.36;34.88
69689;BME280;56932;38.402;-96.176;2022-09-27T00:28:08;97943.14;;;22.66;35.12
69689;BME280;56932;38.402;-96.176;2022-09-27T00:30:33;97944.68;;;23.12;34.14
69689;BME280;56932;38.402;-96.176;2022-09-27T00:32:58;97946.98;;;22.83;34.55
69689;BME280;56932;38.402;-96.176;2022-09-27T00:35:24;97948.69;;;22.65;34.78
69689;BME280;56932;38.402;-96.176;2022-09-27T00:37:49;97949.65;;;22.60;34.80
69689;BME280;56932;38.402;-96.176;2022-09-27T00:40:15;97952.09;;;22.88;34.48
69689;BME280;56932;38.402;-96.176;2022-09-27T00:42:40;97954.14;;;22.86;34.89
69689;BME280;56932;38.402;-96.176;2022-09-27T00:45:11;97952.23;;;23.01;34.93
69689;BME280;56932;38.402;-96.176;2022-09-27T00:47:35;97955.89;;;22.90;34.81
69689;BME280;56932;38.402;-96.176;2022-09-27T00:49:59;97956.32;;;23.06;34.61
69689;BME280;56932;38.402;-96.176;2022-09-27T00:52:24;97959.77;;;22.88;34.50
69689;BME280;56932;38.402;-96.176;2022-09-27T00:54:50;97958.73;;;22.92;34.42
69689;BME280;56932;38.402;-96.176;2022-09-27T00:57:12;97960.86;;;22.73;34.67
69689;BME280;56932;38.402;-96.176;2022-09-27T00:59:40;97962.67;;;22.64;34.73
69689;BME280;56932;38.402;-96.176;2022-09-27T01:02:05;97961.81;;;22.80;34.53
69689;BME280;56932;38.402;-96.176;2022-09-27T01:04:30;97961.85;;;22.67;34.75
69689;BME280;56932;38.402;-96.176;2022-09-27T01:06:54;97960.27;;;23.34;33.91
69689;BME280;56932;38.402;-96.176;2022-09-27T01:09:20;97961.29;;;23.09;34.20
69689;BME280;56932;38.402;-96.176;2022-09-27T01:11:50;97961.49;;;23.21;34.07
69689;BME280;56932;38.402;-96.176;2022-09-27T01:16:42;97964.37;;;23.07;34.50
69689;BME280;56932;38.402;-96.176;2022-09-27T01:19:09;97963.85;;;23.21;33.96
69689;BME280;56932;38.402;-96.176;2022-09-27T01:21:37;97965.97;;;23.10;34.08
69689;BME280;56932;38.402;-96.176;2022-09-27T01:24:04;97967.12;;;23.12;34.08
69689;BME280;56932;38.402;-96.176;2022-09-27T01:26:28;97968.81;;;23.35;34.08
69689;BME280;56932;38.402;-96.176;2022-09-27T01:28:55;97973.57;;;22.86;33.75
69689;BME280;56932;38.402;-96.176;2022-09-27T01:31:12;97974.48;;;23.45;33.39
69689;BME280;56932;38.402;-96.176;2022-09-27T01:33:43;97974.68;;;23.16;34.00
69689;BME280;56932;38.402;-96.176;2022-09-27T01:36:13;97981.36;;;23.13;34.03
69689;BME280;56932;38.402;-96.176;2022-09-27T01:38:32;97985.59;;;23.18;33.96
69689;BME280;56932;38.402;-96.176;2022-09-27T01:40:54;97991.41;;;22.83;34.14
69689;BME280;56932;38.402;-96.176;2022-09-27T01:43:19;97990.80;;;22.83;34.34
69689;BME280;56932;38.402;-96.176;2022-09-27T01:45:44;97991.80;;;22.48;34.52
69689;BME280;56932;38.402;-96.176;2022-09-27T01:48:11;97989.41;;;22.73;34.77
69689;BME280;56932;38.402;-96.176;2022-09-27T01:50:38;97987.77;;;22.89;34.27
69689;BME280;56932;38.402;-96.176;2022-09-27T01:53:00;97985.10;;;22.49;34.73
69689;BME280;56932;38.402;-96.176;2022-09-27T01:55:27;97989.96;;;22.63;35.16
69689;BME280;56932;38.402;-96.176;2022-09-27T01:57:54;97987.40;;;22.41;34.83
69689;BME280;56932;38.402;-96.176;2022-09-27T02:00:14;97987.23;;;22.59;34.61
69689;BME280;56932;38.402;-96.176;2022-09-27T02:02:43;97991.02;;;22.18;35.12
69689;BME280;56932;38.402;-96.176;2022-09-27T02:05:08;97994.29;;;22.59;34.96
69689;BME280;56932;38.402;-96.176;2022-09-27T02:07:36;97996.90;;;22.60;35.22
69689;BME280;56932;38.402;-96.176;2022-09-27T02:10:00;97994.42;;;22.62;34.88
69689;BME280;56932;38.402;-96.176;2022-09-27T02:12:24;97995.47;;;22.65;35.12
69689;BME280;56932;38.402;-96.176;2022-09-27T02:14:51;97988.77;;;22.41;34.80
69689;BME280;56932;38.402;-96.176;2022-09-27T02:17:20;97990.20;;;22.77;34.96
69689;BME280;56932;38.402;-96.176;2022-09-27T02:19:43;97992.05;;;22.30;34.90
69689;BME280;56932;38.402;-96.176;2022-09-27T02:22:10;97987.17;;;22.43;34.69
69689;BME280;56932;38.402;-96.176;2022-09-27T02:24:35;97987.63;;;22.57;34.58
69689;BME280;56932;38.402;-96.176;2022-09-27T02:26:58;97985.81;;;22.31;34.87
69689;BME280;56932;38.402;-96.176;2022-09-27T02:29:24;97985.32;;;22.92;34.72
69689;BME280;56932;38.402;-96.176;2022-09-27T02:31:45;97986.85;;;22.08;35.14
69689;BME280;56932;38.402;-96.176;2022-09-27T02:34:14;97986.17;;;22.47;35.28
69689;BME280;56932;38.402;-96.176;2022-09-27T02:36:37;97985.35;;;22.32;35.18
69689;BME280;56932;38.402;-96.176;2022-09-27T02:39:02;97982.34;;;22.25;35.26
69689;BME280;56932;38.402;-96.176;2022-09-27T02:41:27;97983.54;;;22.85;34.48
69689;BME280;56932;38.402;-96.176;2022-09-27T02:43:54;97987.69;;;22.27;34.90
69689;BME280;56932;38.402;-96.176;2022-09-27T02:48:49;97991.86;;;22.32;34.55
69689;BME280;56932;38.402;-96.176;2022-09-27T02:53:42;98000.34;;;22.29;35.43
69689;BME280;56932;38.402;-96.176;2022-09-27T02:56:05;97998.97;;;22.36;35.00
69689;BME280;56932;38.402;-96.176;2022-09-27T02:58:29;97996.51;;;22.66;34.64
69689;BME280;56932;38.402;-96.176;2022-09-27T03:00:56;97998.01;;;22.06;35.02
69689;BME280;56932;38.402;-96.176;2022-09-27T03:03:19;97998.15;;;22.47;35.09
69689;BME280;56932;38.402;-96.176;2022-09-27T03:05:44;98002.61;;;22.03;34.77
69689;BME280;56932;38.402;-96.176;2022-09-27T03:08:07;98004.18;;;22.49;35.07
69689;BME280;56932;38.402;-96.176;2022-09-27T03:10:31;98004.08;;;22.23;35.39
69689;BME280;56932;38.402;-96.176;2022-09-27T03:12:57;98002.64;;;22.39;35.18
69689;BME280;56932;38.402;-96.176;2022-09-27T03:15:22;98003.45;;;22.32;34.97
69689;BME280;56932;38.402;-96.176;2022-09-27T03:17:48;98002.69;;;22.08;34.96
69689;BME280;56932;38.402;-96.176;2022-09-27T03:20:13;98003.65;;;22.34;34.63
69689;BME280;56932;38.402;-96.176;2022-09-27T03:22:39;98005.70;;;22.02;35.02
69689;BME280;56932;38.402;-96.176;2022-09-27T03:25:05;98004.17;;;22.03;35.16
69689;BME280;56932;38.402;-96.176;2022-09-27T03:27:29;98004.11;;;22.30;35.46
69689;BME280;56932;38.402;-96.176;2022-09-27T03:29:55;98002.89;;;22.11;35.74
69689;BME280;56932;38.402;-96.176;2022-09-27T03:32:20;98002.53;;;22.42;35.33
69689;BME280;56932;38.402;-96.176;2022-09-27T03:34:46;98001.21;;;21.51;35.87
69689;BME280;56932;38.402;-96.176;2022-09-27T03:37:11;97996.49;;;22.31;35.46
69689;BME280;56932;38.402;-96.176;2022-09-27T03:39:37;97994.23;;;22.11;36.01
69689;BME280;56932;38.402;-96.176;2022-09-27T03:42:02;97995.09;;;22.01;35.87
69689;BME280;56932;38.402;-96.176;2022-09-27T03:44:27;97994.86;;;22.16;35.62
69689;BME280;56932;38.402;-96.176;2022-09-27T03:46:53;97994.16;;;22.17;35.61
69689;BME280;56932;38.402;-96.176;2022-09-27T03:49:18;97996.80;;;22.03;35.78
69689;BME280;56932;38.402;-96.176;2022-09-27T03:51:44;97998.37;;;21.87;35.32
69689;BME280;56932;38.402;-96.176;2022-09-27T03:54:10;97996.69;;;22.05;35.73
69689;BME280;56932;38.402;-96.176;2022-09-27T03:56:35;97998.60;;;22.10;35.63
69689;BME280;56932;38.402;-96.176;2022-09-27T03:59:00;98003.12;;;22.03;35.44
69689;BME280;56932;38.402;-96.176;2022-09-27T04:01:25;98005.97;;;21.89;35.92
69689;BME280;56932;38.402;-96.176;2022-09-27T04:03:51;98005.37;;;21.93;35.19
69689;BME280;56932;38.402;-96.176;2022-09-27T04:06:16;98003.20;;;22.18;35.52
69689;BME280;56932;38.402;-96.176;2022-09-27T04:08:42;98003.80;;;21.82;35.34
69689;BME280;56932;38.402;-96.176;2022-09-27T04:11:07;98006.17;;;21.90;35.85
69689;BME280;56932;38.402;-96.176;2022-09-27T04:13:33;98004.66;;;22.19;35.48
69689;BME280;56932;38.402;-96.176;2022-09-27T04:15:58;98006.88;;;21.97;35.49
69689;BME280;56932;38.402;-96.176;2022-09-27T04:18:24;98005.73;;;22.07;35.64
69689;BME280;56932;38.402;-96.176;2022-09-27T04:20:49;98006.45;;;21.66;35.52
69689;BME280;56932;38.402;-96.176;2022-09-27T04:23:15;98006.89;;;22.16;35.49
69689;BME280;56932;38.402;-96.176;2022-09-27T04:25:41;98009.77;;;21.81;35.32
69689;BME280;56932;38.402;-96.176;2022-09-27T04:28:06;98012.75;;;21.90;35.19
69689;BME280;56932;38.402;-96.176;2022-09-27T04:30:31;98015.43;;;22.32;35.29
69689;BME280;56932;38.402;-96.176;2022-09-27T04:32:57;98017.96;;;22.05;35.64
69689;BME280;56932;38.402;-96.176;2022-09-27T04:35:22;98020.34;;;22.22;35.64
69689;BME280;56932;38.402;-96.176;2022-09-27T04:37:48;98017.97;;;21.73;35.76
69689;BME280;56932;38.402;-96.176;2022-09-27T04:40:13;98020.36;;;21.80;35.97
69689;BME280;56932;38.402;-96.176;2022-09-27T04:42:39;98023.62;;;21.69;35.82
69689;BME280;56932;38.402;-96.176;2022-09-27T04:45:05;98027.69;;;22.09;35.86
69689;BME280;56932;38.402;-96.176;2022-09-27T04:47:29;98026.62;;;22.26;35.39
69689;BME280;56932;38.402;-96.176;2022-09-27T04:49:55;98028.87;;;21.88;35.84
69689;BME280;56932;38.402;-96.176;2022-09-27T04:52:21;98030.06;;;22.07;35.59
69689;BME280;56932;38.402;-96.176;2022-09-27T04:54:46;98026.30;;;21.38;35.83
69689;BME280;56932;38.402;-96.176;2022-09-27T04:57:12;98024.51;;;21.59;35.52
69689;BME280;56932;38.402;-96.176;2022-09-27T04:59:38;98026.79;;;22.07;35.53
69689;BME280;56932;38.402;-96.176;2022-09-27T05:02:03;98022.75;;;22.18;35.37
69689;BME280;56932;38.402;-96.176;2022-09-27T05:04:28;98025.00;;;22.24;35.28
69689;BME280;56932;38.402;-96.176;2022-09-27T05:06:54;98027.95;;;21.93;35.67
69689;BME280;56932;38.402;-96.176;2022-09-27T05:09:19;98031.84;;;22.04;35.78
69689;BME280;56932;38.402;-96.176;2022-09-27T05:11:45;98034.81;;;21.71;35.33
69689;BME280;56932;38.402;-96.176;2022-09-27T05:14:10;98037.57;;;21.97;35.54
69689;BME280;56932;38.402;-96.176;2022-09-27T05:16:36;98041.25;;;22.40;35.30
69689;BME280;56932;38.402;-96.176;2022-09-27T05:19:01;98043.06;;;22.05;35.41
69689;BME280;56932;38.402;-96.176;2022-09-27T05:21:26;98045.81;;;21.72;35.87
69689;BME280;56932;38.402;-96.176;2022-09-27T05:23:52;98045.93;;;21.88;35.34
69689;BME280;56932;38.402;-96.176;2022-09-27T05:26:17;98042.13;;;22.23;35.77
69689;BME280;56932;38.402;-96.176;2022-09-27T05:28:43;98042.60;;;21.20;35.84
69689;BME280;56932;38.402;-96.176;2022-09-27T05:31:09;98041.72;;;21.86;35.58
69689;BME280;56932;38.402;-96.176;2022-09-27T05:33:33;98042.57;;;21.91;35.49
69689;BME280;56932;38.402;-96.176;2022-09-27T05:35:59;98047.74;;;21.70;35.78
69689;BME280;56932;38.402;-96.176;2022-09-27T05:38:25;98045.01;;;21.83;35.58
69689;BME280;56932;38.402;-96.176;2022-09-27T05:40:50;98044.79;;;21.80;35.59
69689;BME280;56932;38.402;-96.176;2022-09-27T05:43:16;98042.01;;;21.90;35.77
69689;BME280;56932;38.402;-96.176;2022-09-27T05:45:41;98038.45;;;21.42;35.76
69689;BME280;56932;38.402;-96.176;2022-09-27T05:48:06;98040.81;;;21.91;35.72
69689;BME280;56932;38.402;-96.176;2022-09-27T05:50:32;98037.75;;;22.02;35.27
69689;BME280;56932;38.402;-96.176;2022-09-27T05:52:57;98037.70;;;21.85;35.47
69689;BME280;56932;38.402;-96.176;2022-09-27T05:55:23;98043.17;;;21.70;35.64
69689;BME280;56932;38.402;-96.176;2022-09-27T05:57:53;98043.02;;;21.56;35.81
69689;BME280;56932;38.402;-96.176;2022-09-27T06:00:14;98037.14;;;21.67;35.61
69689;BME280;56932;38.402;-96.176;2022-09-27T06:02:40;98032.19;;;21.08;35.79
69689;BME280;56932;38.402;-96.176;2022-09-27T06:05:05;98025.77;;;21.78;35.50
69689;BME280;56932;38.402;-96.176;2022-09-27T06:07:30;98033.72;;;21.75;35.81
69689;BME280;56932;38.402;-96.176;2022-09-27T06:09:55;98040.83;;;22.06;35.43
69689;BME280;56932;38.402;-96.176;2022-09-27T06:12:21;98045.95;;;21.73;35.61
69689;BME280;56932;38.402;-96.176;2022-09-27T06:14:46;98041.71;;;21.01;35.86
69689;BME280;56932;38.402;-96.176;2022-09-27T06:17:11;98034.91;;;21.82;35.73
69689;BME280;56932;38.402;-96.176;2022-09-27T06:19:37;98025.71;;;21.33;36.10
69689;BME280;56932;38.402;-96.176;2022-09-27T06:22:02;98020.93;;;21.64;35.64
69689;BME280;56932;38.402;-96.176;2022-09-27T06:24:28;98022.66;;;22.46;35.25
69689;BME280;56932;38.402;-96.176;2022-09-27T06:26:54;98024.62;;;21.61;35.68
69689;BME280;56932;38.402;-96.176;2022-09-27T06:29:19;98025.17;;;21.92;35.26
69689;BME280;56932;38.402;-96.176;2022-09-27T06:31:44;98021.13;;;21.26;35.46
69689;BME280;56932;38.402;-96.176;2022-09-27T06:34:10;98023.59;;;21.37;35.98
69689;BME280;56932;38.402;-96.176;2022-09-27T06:36:35;98022.19;;;21.62;35.61
69689;BME280;56932;38.402;-96.176;2022-09-27T06:39:01;98020.77;;;21.52;35.77
69689;BME280;56932;38.402;-96.176;2022-09-27T06:41:26;98019.50;;;21.80;36.04
69689;BME280;56932;38.402;-96.176;2022-09-27T06:43:52;98014.72;;;21.35;35.66
69689;BME280;56932;38.402;-96.176;2022-09-27T06:46:17;98011.99;;;21.80;35.35
69689;BME280;56932;38.402;-96.176;2022-09-27T06:48:43;98011.32;;;21.26;35.72
69689;BME280;56932;38.402;-96.176;2022-09-27T06:51:08;98014.56;;;21.68;35.51
69689;BME280;56932;38.402;-96.176;2022-09-27T06:53:34;98017.11;;;21.73;35.43
69689;BME280;56932;38.402;-96.176;2022-09-27T06:56:00;98020.06;;;21.24;36.06
69689;BME280;56932;38.402;-96.176;2022-09-27T06:58:26;98020.55;;;21.65;35.80
69689;BME280;56932;38.402;-96.176;2022-09-27T07:00:51;98019.74;;;21.37;35.84
69689;BME280;56932;38.402;-96.176;2022-09-27T07:03:15;98012.26;;;21.71;35.67
69689;BME280;56932;38.402;-96.176;2022-09-27T07:05:41;98011.13;;;21.07;35.95
69689;BME280;56932;38.402;-96.176;2022-09-27T07:08:07;98008.32;;;21.37;35.85
69689;BME280;56932;38.402;-96.176;2022-09-27T07:10:34;98009.98;;;21.78;35.92
69689;BME280;56932;38.402;-96.176;2022-09-27T07:13:02;98011.09;;;21.38;35.78
69689;BME280;56932;38.402;-96.176;2022-09-27T07:15:22;98012.95;;;21.66;35.67
69689;BME280;56932;38.402;-96.176;2022-09-27T07:17:55;98013.14;;;21.50;35.61
69689;BME280;56932;38.402;-96.176;2022-09-27T07:20:13;98018.74;;;21.51;35.89
69689;BME280;56932;38.402;-96.176;2022-09-27T07:22:41;98011.17;;;21.58;35.47
69689;BME280;56932;38.402;-96.176;2022-09-27T07:25:04;98009.00;;;21.57;35.44
69689;BME280;56932;38.402;-96.176;2022-09-27T07:27:29;98016.59;;;21.43;35.64
69689;BME280;56932;38.402;-96.176;2022-09-27T07:29:54;98015.68;;;21.45;35.57
69689;BME280;56932;38.402;-96.176;2022-09-27T07:32:20;98011.71;;;21.55;35.49
69689;BME280;56932;38.402;-96.176;2022-09-27T07:34:45;98010.00;;;21.11;35.38
69689;BME280;56932;38.402;-96.176;2022-09-27T07:37:10;98011.31;;;21.80;35.74
69689;BME280;56932;38.402;-96.176;2022-09-27T07:39:36;98012.65;;;21.94;35.20
69689;BME280;56932;38.402;-96.176;2022-09-27T07:42:01;98012.20;;;21.48;35.76
69689;BME280;56932;38.402;-96.176;2022-09-27T07:44:27;98005.55;;;21.17;35.88
69689;BME280;56932;38.402;-96.176;2022-09-27T07:46:52;97998.51;;;21.61;35.32
69689;BME280;56932;38.402;-96.176;2022-09-27T07:49:18;97999.66;;;22.20;34.84
69689;BME280;56932;38.402;-96.176;2022-09-27T07:51:43;98006.07;;;20.77;35.72
69689;BME280;56932;38.402;-96.176;2022-09-27T07:54:09;98005.38;;;21.73;35.38
69689;BME280;56932;38.402;-96.176;2022-09-27T07:56:34;98004.85;;;21.50;35.63
69689;BME280;56932;38.402;-96.176;2022-09-27T07:59:00;98002.83;;;21.37;35.54
69689;BME280;56932;38.402;-96.176;2022-09-27T08:01:25;98001.80;;;21.54;35.60
69689;BME280;56932;38.402;-96.176;2022-09-27T08:03:51;98000.12;;;21.30;35.94
69689;BME280;56932;38.402;-96.176;2022-09-27T08:06:16;98005.99;;;21.58;35.91
69689;BME280;56932;38.402;-96.176;2022-09-27T08:08:42;98003.15;;;20.92;35.50
69689;BME280;56932;38.402;-96.176;2022-09-27T08:11:11;98006.71;;;21.23;36.00
69689;BME280;56932;38.402;-96.176;2022-09-27T08:13:33;98002.51;;;21.94;35.12
69689;BME280;56932;38.402;-96.176;2022-09-27T08:16:01;97996.48;;;21.49;36.00
69689;BME280;56932;38.402;-96.176;2022-09-27T08:18:24;98000.91;;;21.33;36.25
69689;BME280;56932;38.402;-96.176;2022-09-27T08:20:49;97998.84;;;21.19;35.79
69689;BME280;56932;38.402;-96.176;2022-09-27T08:23:15;97997.85;;;21.60;35.85
69689;BME280;56932;38.402;-96.176;2022-09-27T08:25:41;97999.43;;;20.93;35.82
69689;BME280;56932;38.402;-96.176;2022-09-27T08:28:06;97994.17;;;21.64;35.43
69689;BME280;56932;38.402;-96.176;2022-09-27T08:30:32;97994.66;;;21.24;35.96
69689;BME280;56932;38.402;-96.176;2022-09-27T08:32:58;97989.06;;;21.60;35.19
69689;BME280;56932;38.402;-96.176;2022-09-27T08:35:22;97994.93;;;21.42;35.69
69689;BME280;56932;38.402;-96.176;2022-09-27T08:37:53;97986.85;;;21.33;35.55
69689;BME280;56932;38.402;-96.176;2022-09-27T08:40:14;97991.41;;;21.02;35.92
69689;BME280;56932;38.402;-96.176;2022-09-27T08:42:44;97989.82;;;21.57;35.85
69689;BME280;56932;38.402;-96.176;2022-09-27T08:45:10;97979.71;;;21.60;35.45
69689;BME280;56932;38.402;-96.176;2022-09-27T08:47:35;97983.65;;;21.25;35.92
69689;BME280;56932;38.402;-96.176;2022-09-27T08:50:00;97983.31;;;21.34;35.45
69689;BME280;56932;38.402;-96.176;2022-09-27T08:52:24;97977.19;;;21.65;35.37
69689;BME280;56932;38.402;-96.176;2022-09-27T08:54:46;97980.49;;;21.35;34.83
69689;BME280;56932;38.402;-96.176;2022-09-27T08:57:12;97982.19;;;21.38;35.71
69689;BME280;56932;38.402;-96.176;2022-09-27T08:59:41;97982.32;;;21.22;35.90
69689;BME280;56932;38.402;-96.176;2022-09-27T09:02:08;97979.26;;;21.22;35.88
69689;BME280;56932;38.402;-96.176;2022-09-27T09:04:31;97978.28;;;21.34;36.08
69689;BME280;56932;38.402;-96.176;2022-09-27T09:06:59;97978.03;;;21.09;35.75
69689;BME280;56932;38.402;-96.176;2022-09-27T09:09:24;97977.36;;;21.44;35.95
69689;BME280;56932;38.402;-96.176;2022-09-27T09:11:51;97975.69;;;20.86;36.06
69689;BME280;56932;38.402;-96.176;2022-09-27T09:14:22;97969.73;;;21.36;36.03
69689;BME280;56932;38.402;-96.176;2022-09-27T09:16:43;97969.75;;;21.43;35.52
69689;BME280;56932;38.402;-96.176;2022-09-27T09:19:13;97977.55;;;21.19;35.87
69689;BME280;56932;38.402;-96.176;2022-09-27T09:21:32;97975.63;;;21.34;35.38
69689;BME280;56932;38.402;-96.176;2022-09-27T09:23:59;97975.09;;;21.07;35.71
69689;BME280;56932;38.402;-96.176;2022-09-27T09:26:23;97976.98;;;21.68;35.24
69689;BME280;56932;38.402;-96.176;2022-09-27T09:28:52;97974.98;;;20.83;35.73
69689;BME280;56932;38.402;-96.176;2022-09-27T09:31:13;97973.50;;;21.45;35.83
69689;BME280;56932;38.402;-96.176;2022-09-27T09:33:37;97975.93;;;20.85;36.06
69689;BME280;56932;38.402;-96.176;2022-09-27T09:36:02;97979.59;;;21.43;35.92
69689;BME280;56932;38.402;-96.176;2022-09-27T09:38:32;97983.31;;;21.38;35.97
69689;BME280;56932;38.402;-96.176;2022-09-27T09:40:54;97984.40;;;20.94;36.21
69689;BME280;56932;38.402;-96.176;2022-09-27T09:43:19;97982.42;;;21.26;36.15
69689;BME280;56932;38.402;-96.176;2022-09-27T09:45:44;97982.70;;;21.02;35.78
69689;BME280;56932;38.402;-96.176;2022-09-27T09:48:11;97982.72;;;21.25;35.72
69689;BME280;56932;38.402;-96.176;2022-09-27T09:50:35;97981.74;;;21.43;35.87
69689;BME280;56932;38.402;-96.176;2022-09-27T09:53:03;97981.03;;;21.10;35.89
69689;BME280;56932;38.402;-96.176;2022-09-27T09:55:24;97981.85;;;21.16;36.21
69689;BME280;56932;38.402;-96.176;2022-09-27T09:57:57;97983.37;;;20.67;36.20
69689;BME280;56932;38.402;-96.176;2022-09-27T10:00:16;97987.86;;;21.08;35.96
69689;BME280;56932;38.402;-96.176;2022-09-27T10:02:41;97987.96;;;20.89;35.87
69689;BME280;56932;38.402;-96.176;2022-09-27T10:05:06;97986.80;;;20.76;36.05
69689;BME280;56932;38.402;-96.176;2022-09-27T10:07:31;97984.52;;;21.06;36.34
69689;BME280;56932;38.402;-96.176;2022-09-27T10:09:59;97993.07;;;20.80;36.33
69689;BME280;56932;38.402;-96.176;2022-09-27T10:12:21;97998.26;;;21.06;35.92
69689;BME280;56932;38.402;-96.176;2022-09-27T10:14:48;97995.41;;;20.83;35.92
69689;BME280;56932;38.402;-96.176;2022-09-27T10:17:15;97998.84;;;21.46;35.78
69689;BME280;56932;38.402;-96.176;2022-09-27T10:19:38;98000.94;;;21.16;36.14
69689;BME280;56932;38.402;-96.176;2022-09-27T10:22:10;98003.96;;;21.69;35.40
69689;BME280;56932;38.402;-96.176;2022-09-27T10:24:28;97997.69;;;21.36;35.45
69689;BME280;56932;38.402;-96.176;2022-09-27T10:26:58;97998.34;;;21.27;35.30
69689;BME280;56932;38.402;-96.176;2022-09-27T10:29:26;97995.26;;;20.88;36.07
69689;BME280;56932;38.402;-96.176;2022-09-27T10:31:46;98002.95;;;20.82;35.59
69689;BME280;56932;38.402;-96.176;2022-09-27T10:34:17;98003.15;;;21.08;36.17
69689;BME280;56932;38.402;-96.176;2022-09-27T10:36:36;98003.88;;;21.27;35.56
69689;BME280;56932;38.402;-96.176;2022-09-27T10:39:03;98006.84;;;21.09;35.49
69689;BME280;56932;38.402;-96.176;2022-09-27T10:41:32;98009.14;;;21.38;35.77
69689;BME280;56932;38.402;-96.176;2022-09-27T10:43:52;98010.07;;;20.90;36.01
69689;BME280;56932;38.402;-96.176;2022-09-27T10:46:24;98013.65;;;20.77;36.18
69689;BME280;56932;38.402;-96.176;2022-09-27T10:48:43;98013.08;;;20.59;35.51
69689;BME280;56932;38.402;-96.176;2022-09-27T10:53:35;98015.53;;;20.72;36.32
69689;BME280;56932;38.402;-96.176;2022-09-27T10:55:59;98012.83;;;20.90;36.10
69689;BME280;56932;38.402;-96.176;2022-09-27T10:58:27;98015.20;;;20.96;36.40
69689;BME280;56932;38.402;-96.176;2022-09-27T11:00:55;98014.05;;;20.99;36.03
69689;BME280;56932;38.402;-96.176;2022-09-27T11:03:16;98013.21;;;20.97;36.41
69689;BME280;56932;38.402;-96.176;2022-09-27T11:05:42;98015.13;;;20.81;35.99
69689;BME280;56932;38.402;-96.176;2022-09-27T11:10:34;98020.11;;;20.96;36.07
69689;BME280;56932;38.402;-96.176;2022-09-27T11:13:06;98019.46;;;20.77;36.33
69689;BME280;56932;38.402;-96.176;2022-09-27T11:15:28;98022.88;;;21.05;35.98
69689;BME280;56932;38.402;-96.176;2022-09-27T11:17:55;98021.91;;;20.66;36.52
69689;BME280;56932;38.402;-96.176;2022-09-27T11:20:18;98021.21;;;20.96;36.55
69689;BME280;56932;38.402;-96.176;2022-09-27T11:25:14;98028.04;;;21.23;36.06
69689;BME280;56932;38.402;-96.176;2022-09-27T11:27:40;98025.66;;;21.33;35.94
69689;BME280;56932;38.402;-96.176;2022-09-27T11:30:04;98028.18;;;20.72;36.35
69689;BME280;56932;38.402;-96.176;2022-09-27T11:32:33;98024.26;;;20.60;36.87
69689;BME280;56932;38.402;-96.176;2022-09-27T11:34:57;98026.98;;;20.61;36.18
69689;BME280;56932;38.402;-96.176;2022-09-27T11:37:18;98029.54;;;21.06;35.85
69689;BME280;56932;38.402;-96.176;2022-09-27T11:39:46;98027.40;;;20.68;36.65
69689;BME280;56932;38.402;-96.176;2022-09-27T11:42:19;98029.73;;;21.19;35.98
69689;BME280;56932;38.402;-96.176;2022-09-27T11:44:38;98033.24;;;20.65;36.28
69689;BME280;56932;38.402;-96.176;2022-09-27T11:47:01;98031.06;;;20.91;35.92
69689;BME280;56932;38.402;-96.176;2022-09-27T11:49:33;98030.70;;;21.12;35.61
69689;BME280;56932;38.402;-96.176;2022-09-27T11:51:58;98030.26;;;20.60;36.01
69689;BME280;56932;38.402;-96.176;2022-09-27T11:54:24;98027.61;;;20.82;35.94
69689;BME280;56932;38.402;-96.176;2022-09-27T11:56:43;98026.80;;;20.95;35.73
69689;BME280;56932;38.402;-96.176;2022-09-27T12:01:34;98029.11;;;21.69;35.16
69689;BME280;56932;38.402;-96.176;2022-09-27T12:06:22;98031.38;;;20.68;36.08
69689;BME280;56932;38.402;-96.176;2022-09-27T12:08:54;98032.11;;;20.50;35.33
69689;BME280;56932;38.402;-96.176;2022-09-27T12:11:16;98029.06;;;20.92;35.73
69689;BME280;56932;38.402;-96.176;2022-09-27T12:13:38;98028.97;;;21.23;35.29
69689;BME280;56932;38.402;-96.176;2022-09-27T12:16:00;98033.67;;;21.01;35.51
69689;BME280;56932;38.402;-96.176;2022-09-27T12:18:27;98031.78;;;21.41;35.35
69689;BME280;56932;38.402;-96.176;2022-09-27T12:20:52;98030.35;;;20.63;36.00
69689;BME280;56932;38.402;-96.176;2022-09-27T12:23:21;98035.31;;;21.49;35.24
69689;BME280;56932;38.402;-96.176;2022-09-27T12:25:42;98042.51;;;20.69;35.28
69689;BME280;56932;38.402;-96.176;2022-09-27T12:28:13;98041.01;;;21.41;34.85
69689;BME280;56932;38.402;-96.176;2022-09-27T12:30:34;98040.98;;;21.63;34.57
69689;BME280;56932;38.402;-96.176;2022-09-27T12:33:05;98040.24;;;21.15;35.50
69689;BME280;56932;38.402;-96.176;2022-09-27T12:35:26;98039.30;;;21.44;35.14
69689;BME280;56932;38.402;-96.176;2022-09-27T12:37:54;98036.91;;;21.06;34.64
69689;BME280;56932;38.402;-96.176;2022-09-27T12:40:18;98036.93;;;21.76;34.28
69689;BME280;56932;38.402;-96.176;2022-09-27T12:42:43;98038.60;;;21.15;34.72
69689;BME280;56932;38.402;-96.176;2022-09-27T12:45:09;98043.27;;;20.90;35.06
69689;BME280;56932;38.402;-96.176;2022-09-27T12:47:43;98046.08;;;21.03;35.17
69689;BME280;56932;38.402;-96.176;2022-09-27T12:50:02;98046.62;;;21.02;35.52